Time;durP1;ratioP1;P1;durP2;ratioP2;P2;SDS_P1;SDS_P2;PMS_P1;PMS_P2;Temp;Humidity;BMP_temperature;BMP_pressure;BME280_temperature;BME280_humidity;BME280_pressure;Samples;Min_cycle;Max_cycle;Signal;HPM_P1;HPM_P2
2023/02/18 00:01:13;;;;;;;37.75;10.75;;;9.80;99.90;;;;;;5032607;28;20025;-77
2023/02/18 00:03:40;;;;;;;40.92;12.68;;;9.80;99.90;;;;;;5034001;28;20026;-77
2023/02/18 00:06:20;;;;;;;36.08;11.15;;;9.80;99.90;;;;;;5033771;28;20075;-77
2023/02/18 00:08:46;;;;;;;43.92;13.10;;;9.80;99.90;;;;;;5034318;28;20039;-77
2023/02/18 00:11:12;;;;;;;48.47;14.35;;;9.90;99.90;;;;;;5033579;28;20453;-77
2023/02/18 00:13:38;;;;;;;40.42;12.40;;;9.90;99.90;;;;;;5033671;28;20030;-77
2023/02/18 00:16:09;;;;;;;48.83;13.80;;;9.80;99.90;;;;;;5032310;28;20193;-77
2023/02/18 00:18:36;;;;;;;46.47;15.10;;;9.80;99.90;;;;;;5033743;28;20041;-77
2023/02/18 00:21:07;;;;;;;38.30;13.57;;;9.80;99.90;;;;;;5033625;28;20025;-77
2023/02/18 00:23:33;;;;;;;48.90;16.42;;;9.80;99.90;;;;;;5033927;28;20079;-77
2023/02/18 00:26:11;;;;;;;48.60;15.50;;;9.80;99.90;;;;;;5033635;28;20063;-77
2023/02/18 00:28:37;;;;;;;51.72;15.65;;;9.70;99.90;;;;;;5032218;28;20396;-76
2023/02/18 00:31:12;;;;;;;45.95;14.85;;;9.70;99.90;;;;;;5033661;28;20036;-76
2023/02/18 00:33:37;;;;;;;57.63;16.15;;;9.60;99.90;;;;;;5033380;28;20496;-76
2023/02/18 00:36:05;;;;;;;50.92;15.68;;;9.60;99.90;;;;;;5033311;28;20079;-76
2023/02/18 00:38:32;;;;;;;42.47;13.63;;;9.60;99.90;;;;;;5033395;28;20018;-76
2023/02/18 00:40:58;;;;;;;54.50;16.60;;;9.60;99.90;;;;;;5033436;28;20104;-76
2023/02/18 00:43:24;;;;;;;53.22;15.00;;;9.70;99.90;;;;;;5033423;28;20483;-76
2023/02/18 00:45:50;;;;;;;57.47;16.33;;;9.60;99.90;;;;;;5033357;28;20377;-76
2023/02/18 00:48:15;;;;;;;53.60;14.98;;;9.60;99.90;;;;;;5031950;28;20052;-76
2023/02/18 00:50:41;;;;;;;61.58;15.80;;;9.50;99.90;;;;;;5033134;28;20541;-76
2023/02/18 00:53:06;;;;;;;55.20;14.38;;;9.40;99.90;;;;;;5033417;28;20018;-76
2023/02/18 00:55:37;;;;;;;52.17;15.00;;;9.40;99.90;;;;;;5031805;28;20435;-76
2023/02/18 00:58:03;;;;;;;53.58;15.07;;;9.40;99.90;;;;;;5033697;28;20053;-76
2023/02/18 01:00:28;;;;;;;45.17;13.10;;;9.40;99.90;;;;;;5033169;28;20022;-76
2023/02/18 01:02:54;;;;;;;44.42;13.35;;;9.30;99.90;;;;;;5033615;28;20029;-76
2023/02/18 01:05:20;;;;;;;42.50;12.00;;;9.30;99.90;;;;;;5031754;28;20180;-76
2023/02/18 01:07:46;;;;;;;40.38;14.57;;;9.30;99.90;;;;;;5031898;28;20029;-76
2023/02/18 01:10:11;;;;;;;47.92;13.63;;;9.30;99.90;;;;;;5034882;28;20163;-76
2023/02/18 01:12:37;;;;;;;41.35;12.68;;;9.20;99.90;;;;;;5035287;28;20040;-76
2023/02/18 01:15:04;;;;;;;44.25;13.48;;;9.20;99.90;;;;;;5035420;28;20035;-76
2023/02/18 01:17:30;;;;;;;46.65;12.70;;;9.20;99.90;;;;;;5036692;28;20026;-76
2023/02/18 01:19:56;;;;;;;40.47;12.68;;;9.10;99.90;;;;;;5035351;28;20025;-76
2023/02/18 01:22:21;;;;;;;39.58;13.00;;;9.10;99.90;;;;;;5036553;28;20029;-76
2023/02/18 01:24:47;;;;;;;53.30;12.10;;;9.10;99.90;;;;;;5036413;28;20033;-76
2023/02/18 01:27:12;;;;;;;31.48;11.88;;;9.30;99.90;;;;;;5035152;28;20099;-76
2023/02/18 01:29:38;;;;;;;43.15;11.82;;;9.00;99.90;;;;;;5036321;28;20036;-77
2023/02/18 01:32:04;;;;;;;38.78;11.65;;;9.10;99.90;;;;;;5036429;28;20515;-77
2023/02/18 01:34:29;;;;;;;33.67;10.27;;;9.10;99.90;;;;;;5035142;28;20475;-77
2023/02/18 01:36:55;;;;;;;33.90;10.40;;;9.00;99.90;;;;;;5035064;28;20487;-77
2023/02/18 01:39:21;;;;;;;36.90;9.90;;;8.90;99.90;;;;;;5035015;28;20021;-77
2023/02/18 01:41:46;;;;;;;38.72;11.07;;;8.90;99.90;;;;;;5034981;28;20017;-78
2023/02/18 01:44:15;;;;;;;37.67;11.20;;;8.80;99.90;;;;;;5034923;28;20045;-77
2023/02/18 01:46:41;;;;;;;37.20;11.43;;;10.40;99.90;;;;;;5034961;28;20029;-77
2023/02/18 01:49:07;;;;;;;48.10;10.18;;;8.80;99.90;;;;;;5036143;28;20033;-77
2023/02/18 01:51:47;;;;;;;35.55;11.20;;;8.90;99.90;;;;;;5036069;28;20029;-77
2023/02/18 01:54:19;;;;;;;41.80;12.45;;;8.80;99.90;;;;;;5035033;28;20072;-76
2023/02/18 01:56:56;;;;;;;44.97;11.82;;;8.90;99.90;;;;;;5036137;28;20105;-77
2023/02/18 01:59:35;;;;;;;45.20;12.77;;;8.90;99.90;;;;;;5035919;28;20044;-77
2023/02/18 02:02:01;;;;;;;43.03;11.77;;;8.90;99.90;;;;;;5034869;28;20032;-76
2023/02/18 02:04:27;;;;;;;41.90;11.00;;;8.90;99.90;;;;;;5035883;28;20528;-77
2023/02/18 02:06:53;;;;;;;43.58;12.13;;;9.00;99.90;;;;;;5034791;28;20013;-77
2023/02/18 02:09:23;;;;;;;42.65;11.82;;;9.00;99.90;;;;;;5034473;28;20014;-77
2023/02/18 02:11:57;;;;;;;53.20;14.13;;;9.10;99.90;;;;;;5035644;28;20021;-77
2023/02/18 02:14:57;;;;;;;45.65;12.82;;;9.00;99.90;;;;;;5034240;28;20030;-76
2023/02/18 02:17:52;;;;;;;55.92;13.45;;;9.00;99.90;;;;;;5035579;28;20069;-77
2023/02/18 02:20:55;;;;;;;41.10;12.38;;;9.00;99.90;;;;;;5034249;28;20029;-77
2023/02/18 02:26:22;;;;;;;52.50;13.95;;;9.00;99.90;;;;;;5052585;28;20041;-75
2023/02/18 02:28:59;;;;;;;45.88;13.15;;;9.00;99.90;;;;;;5055284;28;20033;-75
2023/02/18 02:31:40;;;;;;;59.15;14.05;;;9.10;99.90;;;;;;5055108;28;20033;-75
2023/02/18 02:34:27;;;;;;;53.10;13.55;;;9.10;99.90;;;;;;5055143;28;20060;-75
2023/02/18 02:36:54;;;;;;;56.58;12.57;;;9.10;99.90;;;;;;5053903;28;20021;-75
2023/02/18 02:39:38;;;;;;;49.95;13.85;;;9.10;99.90;;;;;;5054930;28;20021;-75
2023/02/18 02:42:28;;;;;;;51.25;13.98;;;9.10;99.90;;;;;;5055837;28;20029;-75
2023/02/18 02:45:14;;;;;;;45.33;12.82;;;9.10;99.90;;;;;;5053700;28;20021;-75
2023/02/18 02:47:47;;;;;;;55.67;15.30;;;9.10;99.90;;;;;;5055068;28;20047;-76
2023/02/18 02:50:23;;;;;;;46.95;13.27;;;9.10;99.90;;;;;;5055557;28;20028;-75
2023/02/18 02:52:53;;;;;;;56.95;15.60;;;9.10;99.90;;;;;;5053452;28;20052;-75
2023/02/18 02:55:19;;;;;;;42.17;12.23;;;9.20;99.90;;;;;;5054740;28;20021;-75
2023/02/18 02:57:53;;;;;;;49.53;13.95;;;9.20;99.90;;;;;;5054072;28;20460;-75
2023/02/18 03:00:33;;;;;;;54.63;14.27;;;9.20;99.90;;;;;;5054103;28;20025;-75
2023/02/18 03:03:27;;;;;;;54.67;13.43;;;9.20;99.90;;;;;;5054242;28;20120;-75
2023/02/18 03:06:20;;;;;;;54.70;15.10;;;9.20;99.90;;;;;;5053940;28;20025;-75
2023/02/18 03:09:08;;;;;;;54.90;14.73;;;9.30;99.90;;;;;;5055144;28;20029;-75
2023/02/18 03:11:47;;;;;;;53.70;14.33;;;9.30;99.90;;;;;;5053652;28;20036;-75
2023/02/18 03:14:26;;;;;;;49.55;13.00;;;9.30;99.90;;;;;;5055024;28;20021;-75
2023/02/18 03:17:14;;;;;;;52.97;13.18;;;9.40;99.90;;;;;;5053247;28;20021;-75
2023/02/18 03:19:51;;;;;;;55.13;13.70;;;9.40;99.90;;;;;;5055134;28;20384;-75
2023/02/18 03:22:31;;;;;;;48.72;12.95;;;9.40;99.90;;;;;;5054759;28;20025;-75
2023/02/18 03:24:58;;;;;;;51.53;14.45;;;9.40;99.90;;;;;;5054846;28;20029;-75
2023/02/18 03:27:32;;;;;;;40.03;9.88;;;9.40;99.90;;;;;;5053144;28;20021;-75
2023/02/18 03:30:30;;;;;;;40.53;9.77;;;9.40;99.90;;;;;;5053905;28;20561;-75
2023/02/18 03:33:01;;;;;;;40.92;10.23;;;9.40;99.90;;;;;;5052382;28;20036;-75
2023/02/18 03:35:27;;;;;;;30.80;8.40;;;9.50;99.90;;;;;;5055206;28;20375;-76
2023/02/18 03:37:59;;;;;;;33.53;9.38;;;9.50;99.90;;;;;;5054579;28;20021;-75
2023/02/18 03:40:27;;;;;;;24.92;6.18;;;9.50;99.90;;;;;;5053343;28;20048;-76
2023/02/18 03:42:52;;;;;;;20.98;6.05;;;9.50;99.90;;;;;;5054684;28;20033;-75
2023/02/18 03:45:18;;;;;;;18.35;5.53;;;9.50;99.90;;;;;;5054590;28;20487;-75
2023/02/18 03:47:44;;;;;;;17.67;4.45;;;9.50;99.90;;;;;;5053219;28;20017;-75
2023/02/18 03:50:10;;;;;;;15.48;4.25;;;9.50;99.90;;;;;;5054418;28;20032;-76
2023/02/18 03:52:35;;;;;;;11.70;3.10;;;9.50;99.90;;;;;;5053118;28;20059;-75
2023/02/18 03:55:05;;;;;;;12.88;3.15;;;9.50;99.90;;;;;;5053119;28;20028;-75
2023/02/18 03:57:31;;;;;;;6.40;2.05;;;9.50;99.90;;;;;;5053133;28;20062;-75
2023/02/18 03:59:56;;;;;;;11.73;2.92;;;9.60;99.90;;;;;;5054272;28;20025;-76
2023/02/18 04:02:22;;;;;;;9.82;2.88;;;9.60;99.90;;;;;;5052948;28;20020;-75
2023/02/18 04:04:48;;;;;;;11.32;2.22;;;9.60;99.90;;;;;;5054299;28;20021;-76
2023/02/18 04:07:13;;;;;;;8.57;2.75;;;9.60;99.90;;;;;;5053071;28;20467;-76
2023/02/18 04:09:39;;;;;;;8.63;2.47;;;9.60;99.90;;;;;;5052215;28;20032;-76
2023/02/18 04:12:05;;;;;;;9.50;2.45;;;9.70;99.90;;;;;;5052708;28;20017;-76
2023/02/18 04:14:30;;;;;;;9.07;2.50;;;9.70;99.90;;;;;;5052852;28;20025;-75
2023/02/18 04:16:56;;;;;;;12.13;2.90;;;9.70;99.90;;;;;;5053199;28;20100;-75
2023/02/18 04:19:21;;;;;;;13.27;3.83;;;9.70;99.90;;;;;;5054705;28;20460;-76
2023/02/18 04:21:47;;;;;;;9.35;2.50;;;10.20;99.90;;;;;;5052674;28;20036;-75
2023/02/18 04:24:13;;;;;;;10.32;2.88;;;9.70;99.90;;;;;;5052825;28;20028;-75
2023/02/18 04:26:38;;;;;;;11.00;3.42;;;9.70;99.90;;;;;;5054288;28;20033;-75
2023/02/18 04:29:04;;;;;;;12.82;3.80;;;9.80;99.90;;;;;;5052732;28;20052;-75
2023/02/18 04:31:29;;;;;;;8.95;2.20;;;9.80;99.90;;;;;;5052631;28;20017;-75
2023/02/18 04:33:56;;;;;;;10.65;2.70;;;10.00;99.90;;;;;;5054096;28;20032;-75
2023/02/18 04:36:22;;;;;;;10.68;4.13;;;9.80;99.90;;;;;;5054294;28;20102;-75
2023/02/18 04:38:47;;;;;;;9.18;3.22;;;9.80;99.90;;;;;;5051908;28;20017;-75
2023/02/18 04:41:13;;;;;;;10.05;3.53;;;9.80;99.90;;;;;;5052510;28;20027;-75
2023/02/18 04:43:38;;;;;;;8.13;3.25;;;9.80;99.90;;;;;;5053948;28;20104;-75
2023/02/18 04:46:04;;;;;;;9.82;3.88;;;9.80;99.90;;;;;;5055958;28;20029;-75
2023/02/18 04:48:30;;;;;;;7.85;2.72;;;9.80;99.90;;;;;;5057919;28;20032;-75
2023/02/18 04:50:55;;;;;;;9.40;3.67;;;9.80;99.90;;;;;;5057428;28;20056;-75
2023/02/18 04:53:21;;;;;;;10.18;3.78;;;9.80;99.90;;;;;;5057792;28;20059;-75
2023/02/18 04:55:51;;;;;;;10.93;4.35;;;9.90;99.90;;;;;;5057968;28;20444;-76
2023/02/18 04:58:17;;;;;;;9.90;4.50;;;9.70;99.90;;;;;;5056458;28;20029;-75
2023/02/18 05:00:43;;;;;;;12.82;5.30;;;9.70;99.90;;;;;;5056323;28;20120;-76
2023/02/18 05:03:08;;;;;;;11.60;4.88;;;9.80;99.90;;;;;;5056498;28;20052;-76
2023/02/18 05:05:34;;;;;;;9.98;4.88;;;9.70;99.90;;;;;;5056341;28;20021;-76
2023/02/18 05:08:00;;;;;;;11.48;4.55;;;10.10;99.90;;;;;;5056687;28;20060;-75
2023/02/18 05:10:26;;;;;;;15.02;5.80;;;9.70;99.90;;;;;;5056587;28;20057;-75
2023/02/18 05:12:52;;;;;;;10.63;5.55;;;9.70;99.90;;;;;;5057295;28;20036;-75
2023/02/18 05:15:17;;;;;;;13.27;6.32;;;9.70;99.90;;;;;;5055437;28;20439;-75
2023/02/18 05:17:43;;;;;;;16.02;6.70;;;9.70;99.90;;;;;;5055321;28;20067;-76
2023/02/18 05:20:09;;;;;;;16.90;7.50;;;9.70;99.90;;;;;;5056556;28;20025;-75
2023/02/18 05:22:34;;;;;;;20.60;9.05;;;9.70;99.90;;;;;;5055152;28;20029;-75
2023/02/18 05:25:00;;;;;;;22.25;9.35;;;9.70;99.90;;;;;;5056327;28;20403;-75
2023/02/18 05:27:26;;;;;;;19.05;8.68;;;9.70;99.90;;;;;;5055128;28;20035;-75
2023/02/18 05:29:51;;;;;;;24.40;9.68;;;9.70;99.90;;;;;;5054812;28;20025;-75
2023/02/18 05:32:17;;;;;;;23.10;9.40;;;9.80;99.90;;;;;;5056149;28;20040;-75
2023/02/18 05:34:42;;;;;;;25.23;10.90;;;9.80;99.90;;;;;;5056800;28;20100;-75
2023/02/18 05:37:08;;;;;;;22.15;9.90;;;9.80;99.90;;;;;;5056835;28;20053;-75
2023/02/18 05:39:33;;;;;;;26.60;11.43;;;9.90;99.90;;;;;;5054934;28;20067;-75
2023/02/18 05:41:59;;;;;;;25.33;11.73;;;9.80;99.90;;;;;;5056195;28;20033;-75
2023/02/18 05:44:31;;;;;;;23.48;11.38;;;9.80;99.90;;;;;;5054839;28;20024;-75
2023/02/18 05:47:02;;;;;;;26.67;11.85;;;9.80;99.90;;;;;;5056796;28;20438;-75
2023/02/18 05:49:30;;;;;;;29.88;12.07;;;9.80;99.90;;;;;;5054784;28;20391;-75
2023/02/18 05:51:55;;;;;;;22.65;11.13;;;9.80;99.90;;;;;;5054701;28;20032;-75
2023/02/18 05:54:21;;;;;;;27.25;12.57;;;9.90;99.90;;;;;;5056397;28;20021;-75
2023/02/18 05:56:47;;;;;;;25.52;10.73;;;9.90;99.90;;;;;;5054160;28;20028;-75
2023/02/18 05:59:12;;;;;;;22.67;11.15;;;9.80;99.90;;;;;;5054461;28;20025;-75
2023/02/18 06:01:38;;;;;;;26.60;10.57;;;9.90;99.90;;;;;;5054562;28;20403;-75
2023/02/18 06:04:04;;;;;;;19.88;9.00;;;9.90;99.90;;;;;;5054475;28;20106;-75
2023/02/18 06:06:29;;;;;;;18.17;8.57;;;9.90;99.90;;;;;;5055768;28;20445;-75
2023/02/18 06:08:55;;;;;;;18.60;9.20;;;9.90;99.90;;;;;;5054485;28;20041;-75
2023/02/18 06:11:20;;;;;;;21.42;8.88;;;9.90;99.90;;;;;;5054010;28;20028;-75
2023/02/18 06:13:46;;;;;;;19.38;9.85;;;9.90;99.90;;;;;;5055961;28;20045;-75
2023/02/18 06:16:12;;;;;;;23.20;8.48;;;9.90;99.90;;;;;;5055416;28;20024;-75
2023/02/18 06:18:37;;;;;;;23.55;8.35;;;10.00;99.90;;;;;;5055383;28;20056;-75
2023/02/18 06:21:03;;;;;;;19.85;9.00;;;10.10;99.90;;;;;;5055341;28;20029;-75
2023/02/18 06:23:29;;;;;;;24.70;9.85;;;10.00;99.90;;;;;;5053988;28;20029;-74
2023/02/18 06:25:55;;;;;;;21.92;8.43;;;10.00;99.90;;;;;;5054045;28;20597;-75
2023/02/18 06:28:21;;;;;;;21.38;10.25;;;10.00;99.90;;;;;;5053986;28;20076;-75
2023/02/18 06:30:46;;;;;;;18.58;9.40;;;10.00;99.90;;;;;;5054555;28;20479;-75
2023/02/18 06:33:12;;;;;;;24.95;9.77;;;10.00;99.90;;;;;;5055188;28;20107;-75
2023/02/18 06:35:38;;;;;;;21.80;8.32;;;10.00;99.90;;;;;;5055212;28;20369;-75
2023/02/18 06:38:03;;;;;;;20.90;8.70;;;9.90;99.90;;;;;;5053756;28;20537;-75
2023/02/18 06:40:29;;;;;;;25.88;9.30;;;10.00;99.90;;;;;;5054937;28;20025;-75
2023/02/18 06:42:55;;;;;;;22.92;9.52;;;9.90;99.90;;;;;;5053649;28;20051;-75
2023/02/18 06:45:20;;;;;;;25.67;9.18;;;9.90;99.90;;;;;;5053667;28;20021;-75
2023/02/18 06:47:46;;;;;;;18.50;7.78;;;9.90;99.90;;;;;;5054883;28;20078;-75
2023/02/18 06:50:13;;;;;;;26.02;9.85;;;10.00;99.90;;;;;;5053439;28;20047;-75
2023/02/18 06:52:42;;;;;;;24.08;8.77;;;10.00;99.90;;;;;;5053371;28;20104;-75
2023/02/18 06:55:10;;;;;;;21.40;8.52;;;10.00;99.90;;;;;;5047602;22;20053;-77
2023/02/18 06:57:36;;;;;;;28.10;9.90;;;10.00;99.90;;;;;;5034070;28;20018;-76
2023/02/18 07:00:02;;;;;;;22.90;9.13;;;9.90;99.90;;;;;;5035147;28;20051;-76
2023/02/18 07:02:28;;;;;;;26.42;8.48;;;10.00;99.90;;;;;;5034032;28;20373;-76
2023/02/18 07:04:54;;;;;;;26.38;9.63;;;9.90;99.90;;;;;;5034957;28;20032;-76
2023/02/18 07:07:19;;;;;;;17.75;7.55;;;9.90;99.90;;;;;;5032635;28;20025;-76
2023/02/18 07:09:45;;;;;;;18.67;7.10;;;9.90;99.90;;;;;;5033461;28;20017;-76
2023/02/18 07:12:10;;;;;;;23.63;7.20;;;9.90;99.90;;;;;;5033276;28;20026;-76
2023/02/18 07:14:36;;;;;;;15.20;4.90;;;11.20;99.90;;;;;;5034601;28;20021;-76
2023/02/18 07:17:01;;;;;;;20.85;6.05;;;10.00;99.90;;;;;;5033229;28;20393;-76
2023/02/18 07:19:27;;;;;;;19.90;5.70;;;10.00;99.90;;;;;;5034703;28;20059;-76
2023/02/18 07:21:56;;;;;;;21.50;6.60;;;10.00;99.90;;;;;;5033255;28;20029;-76
2023/02/18 07:24:22;;;;;;;;;;;10.00;99.90;;;;;;5033636;28;20026;-76
2023/02/18 07:26:47;;;;;;;22.25;6.70;;;10.00;99.90;;;;;;5034555;28;20000;-76
2023/02/18 07:29:13;;;;;;;12.10;4.53;;;9.90;99.90;;;;;;5033228;28;20029;-76
2023/02/18 07:31:38;;;;;;;23.10;5.55;;;9.90;99.90;;;;;;5034389;28;20025;-76
2023/02/18 07:34:04;;;;;;;12.40;4.60;;;9.90;99.90;;;;;;5033330;28;20488;-76
2023/02/18 07:36:30;;;;;;;15.25;4.45;;;9.90;99.90;;;;;;5034595;28;20434;-76
2023/02/18 07:38:55;;;;;;;17.40;4.90;;;10.60;99.90;;;;;;5033673;28;20024;-76
2023/02/18 07:41:22;;;;;;;21.05;4.65;;;9.90;99.90;;;;;;5033296;28;20060;-75
2023/02/18 07:43:48;;;;;;;12.10;3.33;;;9.90;99.90;;;;;;5033130;28;20041;-76
2023/02/18 07:46:14;;;;;;;20.55;3.78;;;10.00;99.90;;;;;;5033043;28;20026;-75
2023/02/18 07:48:40;;;;;;;9.68;1.77;;;10.00;99.90;;;;;;5033109;28;20036;-76
2023/02/18 07:51:08;;;;;;;12.27;2.38;;;10.00;99.90;;;;;;5033934;28;20029;-76
2023/02/18 07:53:34;;;;;;;14.73;2.53;;;10.00;99.90;;;;;;5032646;28;20025;-76
2023/02/18 07:56:00;;;;;;;10.63;2.15;;;10.00;99.90;;;;;;5035073;28;20252;-76
2023/02/18 07:58:31;;;;;;;13.88;1.98;;;9.90;99.90;;;;;;5032916;28;20022;-76
2023/02/18 08:00:57;;;;;;;13.85;1.42;;;9.90;99.90;;;;;;5034179;28;20039;-76
2023/02/18 08:03:29;;;;;;;18.15;2.42;;;9.90;99.90;;;;;;5034793;28;20468;-76
2023/02/18 08:05:56;;;;;;;13.45;1.20;;;9.90;99.90;;;;;;5033327;28;20029;-75
2023/02/18 08:08:25;;;;;;;9.40;1.33;;;9.90;99.90;;;;;;5033340;28;20087;-76
2023/02/18 08:10:55;;;;;;;13.30;1.65;;;9.90;99.90;;;;;;5034271;28;20036;-76
2023/02/18 08:13:21;;;;;;;12.23;0.88;;;9.80;99.90;;;;;;5034277;28;20022;-76
2023/02/18 08:15:47;;;;;;;19.15;2.22;;;9.80;99.90;;;;;;5034418;28;20075;-76
2023/02/18 08:18:16;;;;;;;18.13;0.85;;;9.80;99.90;;;;;;5033084;28;20388;-76
2023/02/18 08:20:42;;;;;;;15.65;1.55;;;9.80;99.90;;;;;;5033057;28;20515;-76
2023/02/18 08:23:09;;;;;;;15.68;1.88;;;9.80;99.90;;;;;;5033240;28;20017;-76
2023/02/18 08:25:35;;;;;;;14.73;3.33;;;9.70;99.90;;;;;;5033029;28;20029;-76
2023/02/18 08:28:01;;;;;;;13.05;1.15;;;9.70;99.90;;;;;;5034221;28;20029;-75
2023/02/18 08:30:27;;;;;;;6.18;0.52;;;9.70;99.90;;;;;;5034230;28;20040;-75
2023/02/18 08:32:55;;;;;;;11.48;0.60;;;9.80;99.90;;;;;;5032378;28;20395;-75
2023/02/18 08:35:21;;;;;;;5.53;1.52;;;9.70;99.90;;;;;;5033922;28;20029;-75
2023/02/18 08:37:47;;;;;;;7.30;0.38;;;9.70;99.90;;;;;;5033970;28;20026;-75
2023/02/18 08:40:13;;;;;;;9.38;0.57;;;9.70;99.90;;;;;;5033855;28;20503;-76
2023/02/18 08:42:39;;;;;;;11.60;1.17;;;9.70;99.90;;;;;;5032695;28;20036;-77
2023/02/18 08:45:05;;;;;;;13.45;1.63;;;9.60;99.90;;;;;;5033914;28;20104;-75
2023/02/18 08:47:31;;;;;;;11.57;0.88;;;9.70;99.90;;;;;;5032772;28;20026;-76
2023/02/18 08:49:57;;;;;;;10.70;0.63;;;9.70;99.90;;;;;;5034152;28;20026;-76
2023/02/18 08:52:23;;;;;;;12.00;0.85;;;9.70;99.90;;;;;;5034117;28;20033;-76
2023/02/18 08:54:48;;;;;;;8.13;0.13;;;9.70;99.90;;;;;;5032620;28;20443;-76
2023/02/18 08:57:14;;;;;;;9.48;1.60;;;10.20;99.90;;;;;;5032680;28;20017;-76
2023/02/18 08:59:39;;;;;;;9.70;0.22;;;9.70;99.90;;;;;;5034559;28;20021;-76
2023/02/18 09:02:05;;;;;;;16.25;0.75;;;9.70;99.90;;;;;;5033759;28;20036;-76
2023/02/18 09:04:31;;;;;;;6.03;0.30;;;9.80;99.90;;;;;;5032924;28;20554;-76
2023/02/18 09:06:57;;;;;;;15.45;1.15;;;9.70;99.90;;;;;;5029674;28;20402;-75
2023/02/18 09:09:23;;;;;;;13.07;0.68;;;9.80;99.90;;;;;;5033876;28;20029;-76
2023/02/18 09:11:48;;;;;;;11.23;1.05;;;9.80;99.90;;;;;;5032434;28;20026;-75
2023/02/18 09:14:17;;;;;;;11.52;0.20;;;9.80;99.90;;;;;;5034093;28;20022;-75
2023/02/18 09:16:43;;;;;;;9.63;0.55;;;9.80;99.90;;;;;;5033546;28;20064;-75
2023/02/18 09:19:09;;;;;;;11.82;0.82;;;9.80;99.90;;;;;;5032646;28;20022;-74
2023/02/18 09:21:34;;;;;;;11.48;0.50;;;9.90;99.90;;;;;;5033729;28;20548;-75
2023/02/18 09:24:00;;;;;;;9.52;1.52;;;9.80;99.90;;;;;;5032445;28;20053;-74
2023/02/18 09:26:26;;;;;;;7.82;0.50;;;10.00;99.90;;;;;;5033847;28;20030;-74
2023/02/18 09:28:54;;;;;;;9.90;0.88;;;9.90;99.90;;;;;;5032355;28;20025;-75
2023/02/18 09:31:22;;;;;;;5.10;0.63;;;9.90;99.90;;;;;;5035498;28;20040;-76
2023/02/18 09:33:57;;;;;;;6.83;0.17;;;9.90;99.90;;;;;;5037419;28;20392;-76
2023/02/18 09:36:23;;;;;;;10.77;1.00;;;10.00;99.90;;;;;;5036623;28;20433;-76
2023/02/18 09:38:49;;;;;;;12.35;0.90;;;10.00;99.90;;;;;;5038418;28;20024;-75
2023/02/18 09:41:41;;;;;;;10.55;1.02;;;10.00;99.90;;;;;;5028105;28;20493;-75
2023/02/18 09:44:28;;;;;;;7.13;0.35;;;10.10;99.90;;;;;;5030791;28;20060;-75
2023/02/18 09:47:07;;;;;;;5.80;0.70;;;10.10;99.90;;;;;;5032968;28;20396;-75
2023/02/18 09:49:37;;;;;;;10.68;0.90;;;10.10;99.90;;;;;;5027018;28;20029;-74
2023/02/18 09:52:22;;;;;;;6.22;0.68;;;10.10;99.90;;;;;;5054716;28;20025;-74
2023/02/18 09:54:49;;;;;;;11.63;0.28;;;10.20;99.90;;;;;;5051632;28;20124;-74
2023/02/18 09:57:52;;;;;;;9.38;1.13;;;10.20;99.90;;;;;;5035268;28;20384;-73
2023/02/18 10:00:55;;;;;;;5.72;0.32;;;10.30;99.90;;;;;;4994330;28;20038;-73
2023/02/18 10:03:24;;;;;;;14.13;1.38;;;10.30;99.90;;;;;;5002787;28;20080;-73
2023/02/18 10:05:55;;;;;;;9.30;1.00;;;10.40;99.90;;;;;;5034730;28;20096;-73
2023/02/18 10:08:33;;;;;;;8.63;0.75;;;10.40;99.90;;;;;;5036087;28;20025;-73
2023/02/18 10:10:59;;;;;;;13.23;0.80;;;10.40;99.90;;;;;;5035687;28;20018;-73
2023/02/18 10:13:29;;;;;;;10.75;0.50;;;10.40;99.90;;;;;;5034702;28;20393;-73
2023/02/18 10:15:54;;;;;;;7.72;0.28;;;10.40;99.90;;;;;;5035891;28;20504;-73
2023/02/18 10:18:55;;;;;;;11.15;0.40;;;10.40;99.90;;;;;;5036465;28;20077;-73
2023/02/18 10:21:24;;;;;;;12.88;1.45;;;10.50;99.90;;;;;;5027757;28;20120;-74
2023/02/18 10:24:14;;;;;;;17.80;1.30;;;10.40;99.90;;;;;;5054438;28;20021;-74
2023/02/18 10:26:40;;;;;;;8.60;0.43;;;10.50;99.90;;;;;;5037542;28;20033;-74
2023/02/18 10:29:14;;;;;;;15.07;0.90;;;10.50;99.90;;;;;;5035714;28;20059;-74
2023/02/18 10:31:46;;;;;;;13.77;0.65;;;10.50;99.90;;;;;;5034037;28;20026;-73
2023/02/18 10:34:29;;;;;;;13.32;0.40;;;10.60;99.90;;;;;;5034623;28;20021;-73
2023/02/18 10:37:22;;;;;;;8.77;0.73;;;10.60;99.90;;;;;;5054180;28;20419;-73
2023/02/18 10:40:02;;;;;;;17.23;0.50;;;10.60;99.90;;;;;;5025183;28;20396;-74
2023/02/18 10:42:51;;;;;;;11.88;1.13;;;10.70;99.90;;;;;;5049350;28;20053;-74
2023/02/18 10:45:42;;;;;;;13.10;1.08;;;10.70;99.90;;;;;;5007639;28;20045;-75
2023/02/18 10:48:21;;;;;;;12.00;1.02;;;10.80;99.90;;;;;;5014165;28;20029;-74
2023/02/18 10:50:47;;;;;;;10.85;1.13;;;10.80;99.90;;;;;;5034351;28;20032;-73
2023/02/18 10:53:31;;;;;;;10.98;0.95;;;10.90;99.90;;;;;;5054889;28;20025;-73
2023/02/18 10:55:59;;;;;;;16.25;1.65;;;10.90;99.90;;;;;;5053739;28;20032;-75
2023/02/18 10:58:45;;;;;;;15.77;0.77;;;10.90;99.90;;;;;;5055073;28;20430;-74
2023/02/18 11:01:22;;;;;;;13.02;0.93;;;10.90;99.90;;;;;;5031564;28;20025;-75
2023/02/18 11:03:49;;;;;;;14.98;1.05;;;11.00;99.90;;;;;;5033529;28;20399;-74
2023/02/18 11:06:32;;;;;;;8.13;0.28;;;11.00;99.90;;;;;;5033895;28;20087;-74
2023/02/18 11:08:58;;;;;;;16.15;0.25;;;11.10;99.90;;;;;;5033553;28;20392;-74
2023/02/18 11:11:35;;;;;;;15.80;1.52;;;11.10;99.90;;;;;;5034696;28;20033;-75
2023/02/18 11:14:03;;;;;;;9.98;0.98;;;11.20;99.90;;;;;;5033561;28;20025;-74
2023/02/18 11:16:41;;;;;;;7.40;0.40;;;11.20;99.90;;;;;;5034794;28;20021;-74
2023/02/18 11:19:37;;;;;;;10.25;0.88;;;12.70;99.90;;;;;;5033056;28;20021;-75
2023/02/18 11:22:24;;;;;;;11.73;0.63;;;11.30;99.90;;;;;;5033136;28;20064;-74
2023/02/18 11:24:58;;;;;;;16.92;2.00;;;11.40;99.90;;;;;;5038134;28;20075;-75
2023/02/18 11:27:27;;;;;;;9.43;0.30;;;11.40;99.90;;;;;;5034944;28;20037;-74
2023/02/18 11:29:55;;;;;;;;;;;11.40;99.90;;;;;;5035022;28;20025;-76
2023/02/18 11:32:25;;;;;;;14.45;0.80;;;11.30;99.90;;;;;;5029116;28;19920;-73
2023/02/18 11:34:50;;;;;;;10.15;0.20;;;11.40;99.90;;;;;;5034347;28;20104;-74
2023/02/18 11:37:20;;;;;;;7.15;0.47;;;11.40;99.90;;;;;;5034192;28;20060;-74
2023/02/18 11:39:50;;;;;;;16.60;1.05;;;11.70;99.90;;;;;;5034108;28;20025;-73
2023/02/18 11:42:19;;;;;;;11.05;1.23;;;11.30;99.90;;;;;;5034157;28;20437;-73
2023/02/18 11:44:54;;;;;;;11.75;1.35;;;11.40;99.90;;;;;;5033902;28;20055;-73
2023/02/18 11:47:24;;;;;;;8.48;1.08;;;11.30;99.90;;;;;;5052082;28;20032;-76
2023/02/18 11:50:03;;;;;;;9.68;0.85;;;11.30;99.90;;;;;;5054105;28;20025;-74
2023/02/18 11:52:34;;;;;;;8.73;0.80;;;11.30;99.90;;;;;;5045170;28;20034;-75
2023/02/18 11:55:04;;;;;;;18.33;1.95;;;11.30;99.90;;;;;;5032476;28;20041;-75
2023/02/18 11:57:33;;;;;;;6.13;0.50;;;11.40;99.90;;;;;;5012771;28;20485;-75
2023/02/18 11:59:59;;;;;;;8.55;1.05;;;11.30;99.90;;;;;;5045634;28;20395;-76
2023/02/18 12:02:34;;;;;;;5.90;0.65;;;11.50;99.90;;;;;;5053531;28;20025;-74
2023/02/18 12:05:26;;;;;;;9.90;0.57;;;12.10;99.90;;;;;;5052452;28;20021;-75
2023/02/18 12:08:02;;;;;;;21.60;0.90;;;11.80;99.90;;;;;;5052105;28;20120;-76
2023/02/18 12:10:33;;;;;;;13.85;0.85;;;11.70;99.90;;;;;;5051981;28;20567;-76
2023/02/18 12:13:05;;;;;;;11.98;0.82;;;11.70;99.90;;;;;;5052270;28;20048;-73
2023/02/18 12:15:44;;;;;;;10.52;0.75;;;11.70;99.90;;;;;;5050868;28;20025;-75
2023/02/18 12:18:17;;;;;;;10.90;2.03;;;11.60;99.90;;;;;;5034578;28;20030;-73
2023/02/18 12:20:57;;;;;;;15.73;0.85;;;11.70;99.90;;;;;;5033304;28;20029;-76
2023/02/18 12:23:34;;;;;;;8.48;0.65;;;11.60;99.90;;;;;;5032584;28;20547;-73
2023/02/18 12:26:27;;;;;;;5.25;0.47;;;11.60;99.90;;;;;;5034468;28;20091;-74
2023/02/18 12:29:19;;;;;;;10.10;0.75;;;11.60;99.90;;;;;;5034422;28;20017;-73
2023/02/18 12:32:10;;;;;;;16.48;2.00;;;11.60;99.90;;;;;;5033124;28;20450;-73
2023/02/18 12:34:54;;;;;;;7.28;0.30;;;11.70;99.90;;;;;;5032778;28;20017;-72
2023/02/18 12:37:38;;;;;;;7.28;0.10;;;11.80;99.90;;;;;;5033082;28;20025;-72
2023/02/18 12:40:22;;;;;;;7.70;0.52;;;11.80;99.90;;;;;;5034228;28;20026;-72
2023/02/18 12:43:03;;;;;;;5.65;0.13;;;11.90;99.90;;;;;;5013414;28;20022;-72
2023/02/18 12:45:43;;;;;;;5.05;0.52;;;12.00;99.90;;;;;;5014377;28;20435;-72
2023/02/18 12:48:47;;;;;;;7.32;0.60;;;12.10;99.90;;;;;;5013475;28;20024;-75
2023/02/18 12:51:35;;;;;;;7.88;0.20;;;13.60;99.90;;;;;;5002353;28;20464;-75
2023/02/18 12:54:37;;;;;;;6.70;0.47;;;12.40;99.90;;;;;;5032768;28;20088;-76
2023/02/18 12:57:16;;;;;;;7.97;0.98;;;12.50;99.90;;;;;;5033773;28;20097;-78
2023/02/18 13:00:00;;;;;;;8.05;0.47;;;12.50;99.90;;;;;;5033941;28;20028;-76
2023/02/18 13:02:44;;;;;;;4.90;0.60;;;12.30;99.90;;;;;;5012843;28;20045;-76
2023/02/18 13:05:41;;;;;;;6.20;0.47;;;12.20;99.90;;;;;;5013584;28;20026;-76